sensor_id;sensor_type;location;lat;lon;timestamp;temperature;humidity
25640;DHT22;13497;48.322;16.204;2024-01-16T00:01:18;1.30;99.90
25640;DHT22;13497;48.322;16.204;2024-01-16T00:03:45;1.30;99.90
25640;DHT22;13497;48.322;16.204;2024-01-16T00:06:11;1.30;99.90
25640;DHT22;13497;48.322;16.204;2024-01-16T00:08:37;1.30;99.90
25640;DHT22;13497;48.322;16.204;2024-01-16T00:11:03;1.30;99.90
25640;DHT22;13497;48.322;16.204;2024-01-16T00:13:29;1.20;99.90
25640;DHT22;13497;48.322;16.204;2024-01-16T00:15:54;1.20;99.90
25640;DHT22;13497;48.322;16.204;2024-01-16T00:18:22;1.20;99.90
25640;DHT22;13497;48.322;16.204;2024-01-16T00:20:48;1.20;99.90
25640;DHT22;13497;48.322;16.204;2024-01-16T00:23:14;1.10;99.90
25640;DHT22;13497;48.322;16.204;2024-01-16T00:25:39;1.00;99.90
25640;DHT22;13497;48.322;16.204;2024-01-16T00:28:05;1.00;99.90
25640;DHT22;13497;48.322;16.204;2024-01-16T00:30:31;0.90;99.90
25640;DHT22;13497;48.322;16.204;2024-01-16T00:32:57;0.90;99.90
25640;DHT22;13497;48.322;16.204;2024-01-16T00:35:23;0.90;99.90
25640;DHT22;13497;48.322;16.204;2024-01-16T00:37:49;0.90;99.90
25640;DHT22;13497;48.322;16.204;2024-01-16T00:40:14;0.90;99.90
25640;DHT22;13497;48.322;16.204;2024-01-16T00:42:40;0.80;99.90
25640;DHT22;13497;48.322;16.204;2024-01-16T00:45:06;0.80;99.90
25640;DHT22;13497;48.322;16.204;2024-01-16T00:47:32;0.80;99.90
25640;DHT22;13497;48.322;16.204;2024-01-16T00:49:58;0.80;99.90
25640;DHT22;13497;48.322;16.204;2024-01-16T00:52:26;0.80;99.90
25640;DHT22;13497;48.322;16.204;2024-01-16T00:54:52;0.80;99.90
25640;DHT22;13497;48.322;16.204;2024-01-16T00:57:18;0.80;99.90
25640;DHT22;13497;48.322;16.204;2024-01-16T00:59:45;0.80;99.90
25640;DHT22;13497;48.322;16.204;2024-01-16T01:02:11;0.90;99.90
25640;DHT22;13497;48.322;16.204;2024-01-16T01:04:37;0.80;99.90
25640;DHT22;13497;48.322;16.204;2024-01-16T01:07:03;0.90;99.90
25640;DHT22;13497;48.322;16.204;2024-01-16T01:09:29;0.90;99.90
25640;DHT22;13497;48.322;16.204;2024-01-16T01:11:55;1.00;99.90
25640;DHT22;13497;48.322;16.204;2024-01-16T01:14:20;1.00;99.90
25640;DHT22;13497;48.322;16.204;2024-01-16T01:16:46;1.00;99.90
25640;DHT22;13497;48.322;16.204;2024-01-16T01:19:12;1.00;99.90
25640;DHT22;13497;48.322;16.204;2024-01-16T01:21:38;1.00;99.90
25640;DHT22;13497;48.322;16.204;2024-01-16T01:24:04;1.00;99.90
25640;DHT22;13497;48.322;16.204;2024-01-16T01:26:29;1.00;99.90
25640;DHT22;13497;48.322;16.204;2024-01-16T01:28:55;1.00;99.90
25640;DHT22;13497;48.322;16.204;2024-01-16T01:31:20;0.90;99.90
25640;DHT22;13497;48.322;16.204;2024-01-16T01:33:46;0.90;99.90
25640;DHT22;13497;48.322;16.204;2024-01-16T01:36:13;0.90;99.90
25640;DHT22;13497;48.322;16.204;2024-01-16T01:38:38;0.80;99.90
25640;DHT22;13497;48.322;16.204;2024-01-16T01:41:04;0.80;99.90
25640;DHT22;13497;48.322;16.204;2024-01-16T01:43:30;0.80;99.90
25640;DHT22;13497;48.322;16.204;2024-01-16T01:48:31;0.80;99.90
25640;DHT22;13497;48.322;16.204;2024-01-16T01:50:59;0.80;99.90
25640;DHT22;13497;48.322;16.204;2024-01-16T01:53:25;0.90;99.90
25640;DHT22;13497;48.322;16.204;2024-01-16T01:55:51;1.00;99.90
25640;DHT22;13497;48.322;16.204;2024-01-16T01:58:16;1.10;99.90
25640;DHT22;13497;48.322;16.204;2024-01-16T02:00:42;1.10;99.90
25640;DHT22;13497;48.322;16.204;2024-01-16T02:03:08;1.10;99.90
25640;DHT22;13497;48.322;16.204;2024-01-16T02:05:34;1.10;99.90
25640;DHT22;13497;48.322;16.204;2024-01-16T02:08:00;1.10;99.90
25640;DHT22;13497;48.322;16.204;2024-01-16T02:10:26;1.10;99.90
25640;DHT22;13497;48.322;16.204;2024-01-16T02:12:51;1.10;99.90
25640;DHT22;13497;48.322;16.204;2024-01-16T02:15:17;1.10;99.90
25640;DHT22;13497;48.322;16.204;2024-01-16T02:17:43;1.10;99.90
25640;DHT22;13497;48.322;16.204;2024-01-16T02:20:09;1.10;99.90
25640;DHT22;13497;48.322;16.204;2024-01-16T02:22:36;1.10;99.90
25640;DHT22;13497;48.322;16.204;2024-01-16T02:25:02;1.10;99.90
25640;DHT22;13497;48.322;16.204;2024-01-16T02:27:28;1.10;99.90
25640;DHT22;13497;48.322;16.204;2024-01-16T02:29:54;1.10;99.90
25640;DHT22;13497;48.322;16.204;2024-01-16T02:32:19;1.10;99.90
25640;DHT22;13497;48.322;16.204;2024-01-16T02:34:45;1.10;99.90
25640;DHT22;13497;48.322;16.204;2024-01-16T02:37:11;1.10;99.90
25640;DHT22;13497;48.322;16.204;2024-01-16T02:39:36;1.10;99.90
25640;DHT22;13497;48.322;16.204;2024-01-16T02:42:02;1.00;99.90
25640;DHT22;13497;48.322;16.204;2024-01-16T02:44:28;1.00;99.90
25640;DHT22;13497;48.322;16.204;2024-01-16T02:46:53;0.90;99.90
25640;DHT22;13497;48.322;16.204;2024-01-16T02:49:19;0.90;99.90
25640;DHT22;13497;48.322;16.204;2024-01-16T02:51:45;0.90;99.90
25640;DHT22;13497;48.322;16.204;2024-01-16T02:54:11;0.80;99.90
25640;DHT22;13497;48.322;16.204;2024-01-16T02:56:37;0.80;99.90
25640;DHT22;13497;48.322;16.204;2024-01-16T02:59:03;0.80;99.90
25640;DHT22;13497;48.322;16.204;2024-01-16T03:01:28;0.80;99.90
25640;DHT22;13497;48.322;16.204;2024-01-16T03:03:54;0.80;99.90
25640;DHT22;13497;48.322;16.204;2024-01-16T03:06:23;0.70;99.90
25640;DHT22;13497;48.322;16.204;2024-01-16T03:08:50;0.60;99.90
25640;DHT22;13497;48.322;16.204;2024-01-16T03:11:16;0.70;99.90
25640;DHT22;13497;48.322;16.204;2024-01-16T03:13:42;0.70;99.90
25640;DHT22;13497;48.322;16.204;2024-01-16T03:16:11;0.80;99.90
25640;DHT22;13497;48.322;16.204;2024-01-16T03:18:38;0.80;99.90
25640;DHT22;13497;48.322;16.204;2024-01-16T03:21:05;0.80;99.90
25640;DHT22;13497;48.322;16.204;2024-01-16T03:23:31;0.80;99.90
25640;DHT22;13497;48.322;16.204;2024-01-16T03:25:57;0.80;99.90
25640;DHT22;13497;48.322;16.204;2024-01-16T03:28:22;0.80;99.90
25640;DHT22;13497;48.322;16.204;2024-01-16T03:30:48;0.80;99.90
25640;DHT22;13497;48.322;16.204;2024-01-16T03:33:14;0.80;99.90
25640;DHT22;13497;48.322;16.204;2024-01-16T03:35:39;0.80;99.90
25640;DHT22;13497;48.322;16.204;2024-01-16T03:38:05;0.80;99.90
25640;DHT22;13497;48.322;16.204;2024-01-16T03:40:31;0.70;99.90
25640;DHT22;13497;48.322;16.204;2024-01-16T03:43:00;0.70;99.90
25640;DHT22;13497;48.322;16.204;2024-01-16T03:45:26;0.60;99.90
25640;DHT22;13497;48.322;16.204;2024-01-16T03:47:51;0.50;99.90
25640;DHT22;13497;48.322;16.204;2024-01-16T03:50:17;0.50;99.90
25640;DHT22;13497;48.322;16.204;2024-01-16T03:52:43;0.50;99.90
25640;DHT22;13497;48.322;16.204;2024-01-16T03:55:08;0.50;99.90
25640;DHT22;13497;48.322;16.204;2024-01-16T03:57:34;0.40;99.90
25640;DHT22;13497;48.322;16.204;2024-01-16T04:00:00;0.40;99.90
25640;DHT22;13497;48.322;16.204;2024-01-16T04:02:26;0.40;99.90
25640;DHT22;13497;48.322;16.204;2024-01-16T04:04:52;0.40;99.90
25640;DHT22;13497;48.322;16.204;2024-01-16T04:07:17;0.40;99.90
25640;DHT22;13497;48.322;16.204;2024-01-16T04:09:43;0.40;99.90
25640;DHT22;13497;48.322;16.204;2024-01-16T04:12:09;0.40;99.90
25640;DHT22;13497;48.322;16.204;2024-01-16T04:14:35;0.50;99.90
25640;DHT22;13497;48.322;16.204;2024-01-16T04:17:01;0.50;99.90
25640;DHT22;13497;48.322;16.204;2024-01-16T04:19:27;0.50;99.90
25640;DHT22;13497;48.322;16.204;2024-01-16T04:21:53;0.60;99.90
25640;DHT22;13497;48.322;16.204;2024-01-16T04:24:19;0.60;99.90
25640;DHT22;13497;48.322;16.204;2024-01-16T04:26:45;0.60;99.90
25640;DHT22;13497;48.322;16.204;2024-01-16T04:29:11;0.60;99.90
25640;DHT22;13497;48.322;16.204;2024-01-16T04:31:40;0.70;99.90
25640;DHT22;13497;48.322;16.204;2024-01-16T04:34:07;0.70;99.90
25640;DHT22;13497;48.322;16.204;2024-01-16T04:36:32;0.70;99.90
25640;DHT22;13497;48.322;16.204;2024-01-16T04:38:58;0.70;99.90
25640;DHT22;13497;48.322;16.204;2024-01-16T04:41:23;0.70;99.90
25640;DHT22;13497;48.322;16.204;2024-01-16T04:43:49;0.80;99.90
25640;DHT22;13497;48.322;16.204;2024-01-16T04:46:15;0.80;99.90
25640;DHT22;13497;48.322;16.204;2024-01-16T04:48:42;0.80;99.90
25640;DHT22;13497;48.322;16.204;2024-01-16T04:51:07;0.80;99.90
25640;DHT22;13497;48.322;16.204;2024-01-16T04:53:33;0.90;99.90
25640;DHT22;13497;48.322;16.204;2024-01-16T04:55:59;0.90;99.90
25640;DHT22;13497;48.322;16.204;2024-01-16T04:58:25;0.80;99.90
25640;DHT22;13497;48.322;16.204;2024-01-16T05:00:51;0.90;99.90
25640;DHT22;13497;48.322;16.204;2024-01-16T05:03:16;0.90;99.90
25640;DHT22;13497;48.322;16.204;2024-01-16T05:05:42;0.80;99.90
25640;DHT22;13497;48.322;16.204;2024-01-16T05:08:08;0.90;99.90
25640;DHT22;13497;48.322;16.204;2024-01-16T05:10:34;0.90;99.90
25640;DHT22;13497;48.322;16.204;2024-01-16T05:13:00;0.80;99.90
25640;DHT22;13497;48.322;16.204;2024-01-16T05:15:26;0.80;99.90
25640;DHT22;13497;48.322;16.204;2024-01-16T05:17:52;0.90;99.90
25640;DHT22;13497;48.322;16.204;2024-01-16T05:20:18;0.80;99.90
25640;DHT22;13497;48.322;16.204;2024-01-16T05:22:44;0.80;99.90
25640;DHT22;13497;48.322;16.204;2024-01-16T05:25:10;0.80;99.90
25640;DHT22;13497;48.322;16.204;2024-01-16T05:27:36;0.80;99.90
25640;DHT22;13497;48.322;16.204;2024-01-16T05:30:01;0.80;99.90
25640;DHT22;13497;48.322;16.204;2024-01-16T05:32:27;0.80;99.90
25640;DHT22;13497;48.322;16.204;2024-01-16T05:34:53;0.80;99.90
25640;DHT22;13497;48.322;16.204;2024-01-16T05:37:19;0.80;99.90
25640;DHT22;13497;48.322;16.204;2024-01-16T05:39:45;0.80;99.90
25640;DHT22;13497;48.322;16.204;2024-01-16T05:42:11;0.70;99.90
25640;DHT22;13497;48.322;16.204;2024-01-16T05:44:37;0.70;99.90
25640;DHT22;13497;48.322;16.204;2024-01-16T05:47:04;0.70;99.90
25640;DHT22;13497;48.322;16.204;2024-01-16T05:49:30;0.70;99.90
25640;DHT22;13497;48.322;16.204;2024-01-16T05:51:55;0.80;99.90
25640;DHT22;13497;48.322;16.204;2024-01-16T05:54:22;0.70;99.90
25640;DHT22;13497;48.322;16.204;2024-01-16T05:56:47;0.70;99.90
25640;DHT22;13497;48.322;16.204;2024-01-16T05:59:13;0.70;99.90
25640;DHT22;13497;48.322;16.204;2024-01-16T06:01:39;0.80;99.90
25640;DHT22;13497;48.322;16.204;2024-01-16T06:04:04;0.70;99.90
25640;DHT22;13497;48.322;16.204;2024-01-16T06:06:30;0.80;99.90
25640;DHT22;13497;48.322;16.204;2024-01-16T06:08:56;0.70;99.90
25640;DHT22;13497;48.322;16.204;2024-01-16T06:11:32;0.80;99.90
25640;DHT22;13497;48.322;16.204;2024-01-16T06:13:58;0.70;99.90
25640;DHT22;13497;48.322;16.204;2024-01-16T06:16:27;0.80;99.90
25640;DHT22;13497;48.322;16.204;2024-01-16T06:18:53;0.80;99.90
25640;DHT22;13497;48.322;16.204;2024-01-16T06:21:19;0.80;99.90
25640;DHT22;13497;48.322;16.204;2024-01-16T06:23:44;0.80;99.90
25640;DHT22;13497;48.322;16.204;2024-01-16T06:26:10;0.80;99.90
25640;DHT22;13497;48.322;16.204;2024-01-16T06:28:36;0.80;99.90
25640;DHT22;13497;48.322;16.204;2024-01-16T06:31:01;0.70;99.90
25640;DHT22;13497;48.322;16.204;2024-01-16T06:33:27;0.70;99.90
25640;DHT22;13497;48.322;16.204;2024-01-16T06:35:56;0.70;99.90
25640;DHT22;13497;48.322;16.204;2024-01-16T06:38:22;0.70;99.90
25640;DHT22;13497;48.322;16.204;2024-01-16T06:40:47;0.70;99.90
25640;DHT22;13497;48.322;16.204;2024-01-16T06:43:14;0.70;99.90
25640;DHT22;13497;48.322;16.204;2024-01-16T06:45:42;0.70;99.90
25640;DHT22;13497;48.322;16.204;2024-01-16T06:48:08;0.70;99.90
25640;DHT22;13497;48.322;16.204;2024-01-16T06:50:33;0.70;99.90
25640;DHT22;13497;48.322;16.204;2024-01-16T06:52:59;0.70;99.90
25640;DHT22;13497;48.322;16.204;2024-01-16T06:55:25;0.70;99.90
25640;DHT22;13497;48.322;16.204;2024-01-16T06:57:51;0.70;99.90
25640;DHT22;13497;48.322;16.204;2024-01-16T07:00:16;0.60;99.90
25640;DHT22;13497;48.322;16.204;2024-01-16T07:02:42;0.60;99.90
25640;DHT22;13497;48.322;16.204;2024-01-16T07:05:09;0.70;99.90
25640;DHT22;13497;48.322;16.204;2024-01-16T07:07:35;0.80;99.90
25640;DHT22;13497;48.322;16.204;2024-01-16T07:10:01;0.80;99.90
25640;DHT22;13497;48.322;16.204;2024-01-16T07:12:26;0.80;99.90
25640;DHT22;13497;48.322;16.204;2024-01-16T07:14:52;0.90;99.90
25640;DHT22;13497;48.322;16.204;2024-01-16T07:17:18;0.90;99.90
25640;DHT22;13497;48.322;16.204;2024-01-16T07:19:43;0.90;99.90
25640;DHT22;13497;48.322;16.204;2024-01-16T07:22:09;1.00;99.90
25640;DHT22;13497;48.322;16.204;2024-01-16T07:24:35;1.00;99.90
25640;DHT22;13497;48.322;16.204;2024-01-16T07:27:00;1.10;99.90
25640;DHT22;13497;48.322;16.204;2024-01-16T07:29:26;1.10;99.90
25640;DHT22;13497;48.322;16.204;2024-01-16T07:31:51;1.10;99.90
25640;DHT22;13497;48.322;16.204;2024-01-16T07:34:18;1.10;99.90
25640;DHT22;13497;48.322;16.204;2024-01-16T07:36:47;1.20;99.90
25640;DHT22;13497;48.322;16.204;2024-01-16T07:39:13;1.20;99.90
25640;DHT22;13497;48.322;16.204;2024-01-16T07:41:39;1.20;99.90
25640;DHT22;13497;48.322;16.204;2024-01-16T07:44:05;1.20;99.90
25640;DHT22;13497;48.322;16.204;2024-01-16T07:46:31;1.20;99.90
25640;DHT22;13497;48.322;16.204;2024-01-16T07:48:57;1.20;99.90
25640;DHT22;13497;48.322;16.204;2024-01-16T07:51:22;1.30;99.90
25640;DHT22;13497;48.322;16.204;2024-01-16T07:53:50;1.30;99.90
25640;DHT22;13497;48.322;16.204;2024-01-16T07:56:17;1.30;99.90
25640;DHT22;13497;48.322;16.204;2024-01-16T07:58:42;1.30;99.90
25640;DHT22;13497;48.322;16.204;2024-01-16T08:01:08;1.30;99.90
25640;DHT22;13497;48.322;16.204;2024-01-16T08:03:34;1.20;99.90
25640;DHT22;13497;48.322;16.204;2024-01-16T08:05:59;1.20;99.90
25640;DHT22;13497;48.322;16.204;2024-01-16T08:08:25;1.20;99.90
25640;DHT22;13497;48.322;16.204;2024-01-16T08:10:51;1.10;99.90
25640;DHT22;13497;48.322;16.204;2024-01-16T08:13:16;1.20;99.90
25640;DHT22;13497;48.322;16.204;2024-01-16T08:15:42;1.20;99.90
25640;DHT22;13497;48.322;16.204;2024-01-16T08:18:08;1.30;99.90
25640;DHT22;13497;48.322;16.204;2024-01-16T08:20:33;1.30;99.90
25640;DHT22;13497;48.322;16.204;2024-01-16T08:22:59;1.40;99.90
25640;DHT22;13497;48.322;16.204;2024-01-16T08:25:24;1.40;99.90
25640;DHT22;13497;48.322;16.204;2024-01-16T08:27:50;1.50;99.90
25640;DHT22;13497;48.322;16.204;2024-01-16T08:30:16;1.40;99.90
25640;DHT22;13497;48.322;16.204;2024-01-16T08:32:41;1.50;99.90
25640;DHT22;13497;48.322;16.204;2024-01-16T08:35:07;1.60;99.90
25640;DHT22;13497;48.322;16.204;2024-01-16T08:37:34;1.60;99.90
25640;DHT22;13497;48.322;16.204;2024-01-16T08:40:00;1.60;99.90
25640;DHT22;13497;48.322;16.204;2024-01-16T08:42:25;1.60;99.90
25640;DHT22;13497;48.322;16.204;2024-01-16T08:44:52;1.70;99.90
25640;DHT22;13497;48.322;16.204;2024-01-16T08:47:17;1.90;99.90
25640;DHT22;13497;48.322;16.204;2024-01-16T08:49:43;2.00;99.90
25640;DHT22;13497;48.322;16.204;2024-01-16T08:52:09;2.00;99.90
25640;DHT22;13497;48.322;16.204;2024-01-16T08:54:35;2.10;99.90
25640;DHT22;13497;48.322;16.204;2024-01-16T08:57:01;2.10;99.90
25640;DHT22;13497;48.322;16.204;2024-01-16T08:59:26;2.10;99.90
25640;DHT22;13497;48.322;16.204;2024-01-16T09:01:53;2.10;99.90
25640;DHT22;13497;48.322;16.204;2024-01-16T09:04:19;2.00;99.80
25640;DHT22;13497;48.322;16.204;2024-01-16T09:06:44;2.00;99.90
25640;DHT22;13497;48.322;16.204;2024-01-16T09:09:11;2.10;99.90
25640;DHT22;13497;48.322;16.204;2024-01-16T09:11:38;2.20;99.80
25640;DHT22;13497;48.322;16.204;2024-01-16T09:14:03;2.20;99.40
25640;DHT22;13497;48.322;16.204;2024-01-16T09:16:29;2.30;99.20
25640;DHT22;13497;48.322;16.204;2024-01-16T09:18:55;2.30;99.10
25640;DHT22;13497;48.322;16.204;2024-01-16T09:21:21;2.30;99.10
25640;DHT22;13497;48.322;16.204;2024-01-16T09:23:47;2.30;99.20
25640;DHT22;13497;48.322;16.204;2024-01-16T09:26:12;2.30;99.10
25640;DHT22;13497;48.322;16.204;2024-01-16T09:28:38;2.30;98.60
25640;DHT22;13497;48.322;16.204;2024-01-16T09:31:06;2.30;99.20
25640;DHT22;13497;48.322;16.204;2024-01-16T09:33:33;2.30;99.20
25640;DHT22;13497;48.322;16.204;2024-01-16T09:35:59;2.10;99.70
25640;DHT22;13497;48.322;16.204;2024-01-16T09:38:24;2.00;99.90
25640;DHT22;13497;48.322;16.204;2024-01-16T09:40:50;1.90;99.90
25640;DHT22;13497;48.322;16.204;2024-01-16T09:43:18;1.90;99.90
25640;DHT22;13497;48.322;16.204;2024-01-16T09:45:45;1.90;99.90
25640;DHT22;13497;48.322;16.204;2024-01-16T09:48:13;2.00;99.90
25640;DHT22;13497;48.322;16.204;2024-01-16T09:50:39;2.00;99.90
25640;DHT22;13497;48.322;16.204;2024-01-16T09:53:05;2.00;99.90
25640;DHT22;13497;48.322;16.204;2024-01-16T09:55:31;2.10;99.90
25640;DHT22;13497;48.322;16.204;2024-01-16T09:57:57;2.20;99.70
25640;DHT22;13497;48.322;16.204;2024-01-16T10:00:24;2.20;99.40
25640;DHT22;13497;48.322;16.204;2024-01-16T10:02:51;2.20;99.50
25640;DHT22;13497;48.322;16.204;2024-01-16T10:05:18;2.30;99.60
25640;DHT22;13497;48.322;16.204;2024-01-16T10:07:44;2.40;99.40
25640;DHT22;13497;48.322;16.204;2024-01-16T10:10:10;2.50;99.40
25640;DHT22;13497;48.322;16.204;2024-01-16T10:12:39;2.50;99.20
25640;DHT22;13497;48.322;16.204;2024-01-16T10:15:09;2.60;99.20
25640;DHT22;13497;48.322;16.204;2024-01-16T10:17:41;2.60;99.00
25640;DHT22;13497;48.322;16.204;2024-01-16T10:20:11;2.70;98.90
25640;DHT22;13497;48.322;16.204;2024-01-16T10:22:52;2.80;99.00
25640;DHT22;13497;48.322;16.204;2024-01-16T10:25:18;2.90;98.70
25640;DHT22;13497;48.322;16.204;2024-01-16T10:27:45;2.90;98.80
25640;DHT22;13497;48.322;16.204;2024-01-16T10:30:12;3.00;98.60
25640;DHT22;13497;48.322;16.204;2024-01-16T10:32:39;3.10;98.50
25640;DHT22;13497;48.322;16.204;2024-01-16T10:35:12;3.30;98.30
25640;DHT22;13497;48.322;16.204;2024-01-16T10:37:46;3.30;97.50
25640;DHT22;13497;48.322;16.204;2024-01-16T10:40:19;3.30;97.90
25640;DHT22;13497;48.322;16.204;2024-01-16T10:42:46;3.20;98.00
25640;DHT22;13497;48.322;16.204;2024-01-16T10:45:17;3.30;97.80
25640;DHT22;13497;48.322;16.204;2024-01-16T10:47:45;3.20;97.80
25640;DHT22;13497;48.322;16.204;2024-01-16T10:50:11;3.20;97.40
25640;DHT22;13497;48.322;16.204;2024-01-16T10:52:46;3.20;97.60
25640;DHT22;13497;48.322;16.204;2024-01-16T10:55:19;3.30;97.30
25640;DHT22;13497;48.322;16.204;2024-01-16T10:57:45;3.40;97.30
25640;DHT22;13497;48.322;16.204;2024-01-16T11:00:12;3.50;97.10
25640;DHT22;13497;48.322;16.204;2024-01-16T11:02:47;3.40;97.10
25640;DHT22;13497;48.322;16.204;2024-01-16T11:05:15;3.50;97.00
25640;DHT22;13497;48.322;16.204;2024-01-16T11:07:42;3.50;96.80
25640;DHT22;13497;48.322;16.204;2024-01-16T11:10:10;3.50;96.90
25640;DHT22;13497;48.322;16.204;2024-01-16T11:12:37;3.60;97.00
25640;DHT22;13497;48.322;16.204;2024-01-16T11:15:06;3.60;96.50
25640;DHT22;13497;48.322;16.204;2024-01-16T11:17:34;3.60;96.30
25640;DHT22;13497;48.322;16.204;2024-01-16T11:20:03;3.60;96.50
25640;DHT22;13497;48.322;16.204;2024-01-16T11:22:41;3.60;96.70
25640;DHT22;13497;48.322;16.204;2024-01-16T11:25:17;3.70;96.80
25640;DHT22;13497;48.322;16.204;2024-01-16T11:27:45;3.70;96.70
25640;DHT22;13497;48.322;16.204;2024-01-16T11:30:29;3.80;96.70
25640;DHT22;13497;48.322;16.204;2024-01-16T11:32:55;3.80;96.60
25640;DHT22;13497;48.322;16.204;2024-01-16T11:35:32;3.70;96.50
25640;DHT22;13497;48.322;16.204;2024-01-16T11:40:35;3.80;96.30
25640;DHT22;13497;48.322;16.204;2024-01-16T11:43:39;3.70;96.30
25640;DHT22;13497;48.322;16.204;2024-01-16T11:46:08;3.80;96.60
25640;DHT22;13497;48.322;16.204;2024-01-16T11:48:35;3.90;95.90
25640;DHT22;13497;48.322;16.204;2024-01-16T11:51:24;3.90;95.70
25640;DHT22;13497;48.322;16.204;2024-01-16T11:53:51;3.80;95.60
25640;DHT22;13497;48.322;16.204;2024-01-16T11:58:48;3.80;95.00
25640;DHT22;13497;48.322;16.204;2024-01-16T12:01:19;3.70;95.10
25640;DHT22;13497;48.322;16.204;2024-01-16T12:03:46;3.70;95.20
25640;DHT22;13497;48.322;16.204;2024-01-16T12:06:16;3.70;95.00
25640;DHT22;13497;48.322;16.204;2024-01-16T12:08:42;3.60;95.00
25640;DHT22;13497;48.322;16.204;2024-01-16T12:11:07;3.60;94.80
25640;DHT22;13497;48.322;16.204;2024-01-16T12:13:33;3.50;94.60
25640;DHT22;13497;48.322;16.204;2024-01-16T12:16:02;3.50;94.60
25640;DHT22;13497;48.322;16.204;2024-01-16T12:18:31;3.60;94.50
25640;DHT22;13497;48.322;16.204;2024-01-16T12:20:57;3.60;94.70
25640;DHT22;13497;48.322;16.204;2024-01-16T12:23:24;3.70;94.50
25640;DHT22;13497;48.322;16.204;2024-01-16T12:25:52;3.70;94.30
25640;DHT22;13497;48.322;16.204;2024-01-16T12:28:24;3.70;94.10
25640;DHT22;13497;48.322;16.204;2024-01-16T12:30:51;3.70;94.10
25640;DHT22;13497;48.322;16.204;2024-01-16T12:33:21;3.80;93.90
25640;DHT22;13497;48.322;16.204;2024-01-16T12:35:47;3.80;93.50
25640;DHT22;13497;48.322;16.204;2024-01-16T12:38:14;3.80;93.60
25640;DHT22;13497;48.322;16.204;2024-01-16T12:40:49;3.80;93.40
25640;DHT22;13497;48.322;16.204;2024-01-16T12:43:17;3.70;93.40
25640;DHT22;13497;48.322;16.204;2024-01-16T12:45:44;3.70;93.50
25640;DHT22;13497;48.322;16.204;2024-01-16T12:48:10;3.70;93.30
25640;DHT22;13497;48.322;16.204;2024-01-16T12:50:36;3.70;93.30
25640;DHT22;13497;48.322;16.204;2024-01-16T12:53:10;3.70;93.20
25640;DHT22;13497;48.322;16.204;2024-01-16T12:55:38;3.70;93.10
25640;DHT22;13497;48.322;16.204;2024-01-16T12:58:22;3.70;92.90
25640;DHT22;13497;48.322;16.204;2024-01-16T13:00:54;3.80;93.00
25640;DHT22;13497;48.322;16.204;2024-01-16T13:03:25;3.80;92.80
25640;DHT22;13497;48.322;16.204;2024-01-16T13:05:57;3.90;93.00
25640;DHT22;13497;48.322;16.204;2024-01-16T13:08:23;3.90;93.10
25640;DHT22;13497;48.322;16.204;2024-01-16T13:11:07;4.00;92.80
25640;DHT22;13497;48.322;16.204;2024-01-16T13:13:33;3.80;92.40
25640;DHT22;13497;48.322;16.204;2024-01-16T13:16:01;3.80;92.80
25640;DHT22;13497;48.322;16.204;2024-01-16T13:18:28;3.90;92.60
25640;DHT22;13497;48.322;16.204;2024-01-16T13:20:56;3.90;92.60
25640;DHT22;13497;48.322;16.204;2024-01-16T13:23:23;3.90;92.60
25640;DHT22;13497;48.322;16.204;2024-01-16T13:25:51;3.90;92.80
25640;DHT22;13497;48.322;16.204;2024-01-16T13:28:18;3.80;92.60
25640;DHT22;13497;48.322;16.204;2024-01-16T13:30:45;3.80;92.50
25640;DHT22;13497;48.322;16.204;2024-01-16T13:33:11;3.80;92.50
25640;DHT22;13497;48.322;16.204;2024-01-16T13:35:44;3.80;92.60
25640;DHT22;13497;48.322;16.204;2024-01-16T13:38:11;3.90;92.60
25640;DHT22;13497;48.322;16.204;2024-01-16T13:40:38;3.90;92.50
25640;DHT22;13497;48.322;16.204;2024-01-16T13:43:06;4.00;92.40
25640;DHT22;13497;48.322;16.204;2024-01-16T13:45:35;3.90;92.50
25640;DHT22;13497;48.322;16.204;2024-01-16T13:48:01;3.90;92.40
25640;DHT22;13497;48.322;16.204;2024-01-16T13:50:27;3.90;92.30
25640;DHT22;13497;48.322;16.204;2024-01-16T13:52:53;3.90;92.80
25640;DHT22;13497;48.322;16.204;2024-01-16T13:55:20;3.90;92.70
25640;DHT22;13497;48.322;16.204;2024-01-16T13:57:46;4.00;92.80
25640;DHT22;13497;48.322;16.204;2024-01-16T14:00:13;4.10;92.80
25640;DHT22;13497;48.322;16.204;2024-01-16T14:05:08;4.10;92.60
25640;DHT22;13497;48.322;16.204;2024-01-16T14:07:37;4.00;92.80
25640;DHT22;13497;48.322;16.204;2024-01-16T14:10:05;3.90;92.70
25640;DHT22;13497;48.322;16.204;2024-01-16T14:12:31;3.90;92.80
25640;DHT22;13497;48.322;16.204;2024-01-16T14:14:57;3.90;92.20
25640;DHT22;13497;48.322;16.204;2024-01-16T14:17:23;3.70;92.70
25640;DHT22;13497;48.322;16.204;2024-01-16T14:19:48;3.70;93.10
25640;DHT22;13497;48.322;16.204;2024-01-16T14:22:14;3.70;93.40
25640;DHT22;13497;48.322;16.204;2024-01-16T14:24:39;3.70;93.50
25640;DHT22;13497;48.322;16.204;2024-01-16T14:27:05;3.70;93.10
25640;DHT22;13497;48.322;16.204;2024-01-16T14:29:32;3.70;93.20
25640;DHT22;13497;48.322;16.204;2024-01-16T14:31:59;3.70;93.40
25640;DHT22;13497;48.322;16.204;2024-01-16T14:34:26;3.70;93.10
25640;DHT22;13497;48.322;16.204;2024-01-16T14:36:53;3.60;93.40
25640;DHT22;13497;48.322;16.204;2024-01-16T14:39:19;3.60;93.40
25640;DHT22;13497;48.322;16.204;2024-01-16T14:41:50;3.60;93.50
25640;DHT22;13497;48.322;16.204;2024-01-16T14:44:16;3.50;93.50
25640;DHT22;13497;48.322;16.204;2024-01-16T14:46:45;3.50;93.50
25640;DHT22;13497;48.322;16.204;2024-01-16T14:49:11;3.50;93.30
25640;DHT22;13497;48.322;16.204;2024-01-16T14:51:37;3.40;93.40
25640;DHT22;13497;48.322;16.204;2024-01-16T14:54:03;3.40;93.30
25640;DHT22;13497;48.322;16.204;2024-01-16T14:56:30;3.20;93.50
25640;DHT22;13497;48.322;16.204;2024-01-16T14:58:57;3.20;93.70
25640;DHT22;13497;48.322;16.204;2024-01-16T15:01:23;3.10;93.70
25640;DHT22;13497;48.322;16.204;2024-01-16T15:03:48;3.10;93.80
25640;DHT22;13497;48.322;16.204;2024-01-16T15:06:15;3.00;94.10
25640;DHT22;13497;48.322;16.204;2024-01-16T15:08:42;3.00;94.10
25640;DHT22;13497;48.322;16.204;2024-01-16T15:11:08;2.90;94.30
25640;DHT22;13497;48.322;16.204;2024-01-16T15:13:34;2.90;94.40
25640;DHT22;13497;48.322;16.204;2024-01-16T15:16:00;2.90;94.40
25640;DHT22;13497;48.322;16.204;2024-01-16T15:18:26;3.00;94.50
25640;DHT22;13497;48.322;16.204;2024-01-16T15:20:52;2.90;94.50
25640;DHT22;13497;48.322;16.204;2024-01-16T15:23:18;2.80;94.70
25640;DHT22;13497;48.322;16.204;2024-01-16T15:25:43;2.80;94.90
25640;DHT22;13497;48.322;16.204;2024-01-16T15:28:09;2.90;94.80
25640;DHT22;13497;48.322;16.204;2024-01-16T15:30:35;2.80;94.80
25640;DHT22;13497;48.322;16.204;2024-01-16T15:33:02;2.80;94.80
25640;DHT22;13497;48.322;16.204;2024-01-16T15:35:34;2.70;94.80
25640;DHT22;13497;48.322;16.204;2024-01-16T15:38:00;2.60;95.30